English version (google)  Retour à l'accueil Ecrire à l'auteur du site Runraid : Michel Jourdan


 Visitez La Boutique 



Les prochaines courses


Les derniers résultats

cliquez pour visualiser la page complète relatant la chronologie des éruptions du Piton de la Fournaise
éruptions Piton de la Fournaise


Ile de La Réunion

 Diagonale des Fous 

Ecrire au créateur du site : Michel Jourdan
Contact


2011-01-20 - WESTERN STATES ENDURANCE RUN

Pour consulter le palmarès d'un coureur, un clic sur son nom !

Vous avez des remarques, corrections, ... sur ces résultats , un clic sur --> pour me transmettre toute information concernant les classements


WESTERN STATES ENDURANCE RUN - 2011 : classement des 310 finishers
Place Nom Temps Cat. Club Sexe Clt/cat.
Place Nom Temps Cat. Club Sexe Clt/cat.
1 JORNET Kilian 15:34:24 M23 ESP M 0
2 Wolfe Mike 15:38:29 M23 USA M 0
3 Clark Nicholas 15:50:23 M35 GBR M 0
4 Bragg Jeremy 15:55:08 M23 GBR M 0
5 Kaburaki Tsuyoshi 16:07:04 M40 JPN M 0
6 Olson Timothy 16:18:42 M23 USA M 0
7 Cooper Graham 16:34:41 M40 USA M 0
8 MacKey David 16:36:21 M40 USA M 0
9 Jones Wilkins Andy 16:39:30 M40 USA M 0
10 Sharman Ian 16:40:19 M23 GBR M 0
11 Olmstead Dan 16:45:45 M35 USA M 0
12 Sim Jae Deok 16:48:22 M40 KOR M 0
13 Okunomiya Shunsuke 16:56:18 M23 JPN M 0
14 Redpath Glen 16:57:58 M45 CAN M 0
15 Lantz Mark 17:19:14 M45 USA M 0
16 Rivers Brett 17:38:00 M23 USA M 0
17 Lawler Jon 17:45:35 M45 USA M 0
18 Greenwood Eleanor 17:55:29 W23 GBR F 1ere F 0
19 La Duc David 18:01:12 M40 USA M 0
20 Reed Chris 18:12:28 M35 USA M 0
21 Hoagland Karl 18:15:48 M45 USA M 0
22 Semick Pardue Kami 18:17:34 W40 USA F 2 F 0
23 Kimball Nikki 18:17:39 W40 USA F 3 F 0
24 Garneau Tracy 18:22:15 W40 CAN F 4 F 0
25 Bosio Rory 18:37:17 W23 USA F 5 F 0
26 LaPierre Aliza 18:45:25 W23 USA F 6 F 0
27 Calzetta Christopher 18:45:47 M23 USA M 0
28 Skaden Erik 18:45:52 M35 USA M 0
29 Arbogast Meghan 18:50:19 W50 USA F 7 F 0
30 Freeman Lon 19:10:50 M35 USA M 0
31 Powell Bryon 19:24:14 M23 USA M 0
32 Crockett Sidney 19:28:00 M23 USA M 0
33 Rutherford John 19:30:49 M23 USA M 0
34 Sproston Amy 19:36:19 W35 USA F 8 F 0
35 Creehan Ben 19:42:22 M23 USA M 0
36 Kulak Joseph 19:44:52 M40 USA M 0
37 Wheeler Rebecca 19:46:54 W35 USA F 9 F 0
38 Silker Chad 19:48:27 M23 USA M 0
39 Huggins Bill 19:50:15 M40 USA M 0
40 Uhan Joseph 20:01:51 M23 USA M 0
41 Taylor Lewis 20:02:55 M35 USA M 0
42 Fitzpatrick Timothy 20:08:47 M45 USA M 0
43 Vize Andrew 20:11:41 M23 AUS M 0
44 Pope Shaun 20:29:26 MU23 USA M 0
45 Toschi Eric 20:35:38 M40 USA M 0
46 Papineau David 20:37:18 M40 CAN M 0
47 Smith Pam 20:40:48 W35 USA F 10 F 0
48 Palichuk Mike 20:42:12 M40 CAN M 0
49 Rumon Kevin 20:44:16 M45 USA M 0
50 Cospolich Helen 20:44:50 W23 USA F 11 F 0
51 Adams Michael 20:47:25 M40 USA M 0
52 Thornley Craig 20:47:30 M45 USA M 0
53 Johnson Eric Warren 20:48:08 M23 USA M 0
54 Larsen David Arnold 20:50:56 M40 USA M 0
55 Mickelberry Shad 20:58:10 M23 USA M 0
56 Thompson Sam 21:10:08 M23 USA M 0
57 Braje Todd 21:11:09 M35 USA M 0
58 Jaime Scott 21:19:40 M40 USA M 0
59 Nichols John 21:20:27 M45 USA M 0
60 Peters Jerry 21:22:44 M35 USA M 0
61 Foote Michael 21:27:46 M23 USA M 0
62 Long Kenneth 21:27:56 M23 USA M 0
63 Bertot Jeff 21:32:21 M35 USA M 0
64 Arnstein Michael 21:40:06 M23 USA M 0
65 Keyes Matthew 21:41:13 M35 USA M 0
66 Bechtel Adam 21:42:09 M35 USA M 0
67 St. Pierre Adam 21:47:19 M23 USA M 0
68 Labelle Bruce 21:55:03 M55 USA M 0
69 Town David 21:55:17 M23 USA M 0
70 Rancourt Wayne 21:55:24 M45 USA M 0
71 Easa David 21:55:32 M35 USA M 0
72 Murphy Jeason 21:56:53 M23 USA M 0
73 Huising Jotham 22:01:56 M35 CAN M 0
74 Mills Scott 22:11:19 M60 USA M 0
75 Cardelli Beth 22:16:28 W23 AUS F 12 F 0
76 Farkash Ron 22:16:57 M40 USA M 0
77 Gregorich Kenneth 22:22:22 M50 USA M 0
78 Farris Galen 22:23:26 M23 USA M 0
79 Brugman Gretchen 22:30:38 W35 USA F 13 F 0
80 Place Andrew 22:36:25 M45 USA M 0
81 Cook Denis 22:38:00 M23 USA M 0
82 Knudsen Ted 22:39:45 M40 USA M 0
83 Kadunc David 22:48:03 M23 SLO M 0
84 Scott Jim 22:49:27 M50 USA M 0
85 Martinez Emilio Jose 22:50:52 M35 ESP M 0
86 Frink Jamie 22:51:12 W35 USA F 14 F 0
87 Davenport Matthew 22:54:41 M23 USA M 0
88 Perry Jill 23:07:11 W40 USA F 15 F 0
89 McDaniel Alex 23:08:21 M23 USA M 0
90 Hyson Chad 23:08:25 M35 CAN M 0
91 Dill Franz 23:08:41 M35 USA M 0
92 Kennedy Joshua 23:09:37 M35 USA M 0
93 Wickersham Charles 23:09:51 M35 USA M 0
94 Dellapace Patrick 23:10:22 M23 USA M 0
95 Bratsberg Bernt 23:12:07 M50 NOR M 0
96 Greenhill Jaclyn 23:12:49 W23 USA F 16 F 0
97 Rieger Keith 23:16:59 M40 USA M 0
98 Edgerton Kirk 23:19:27 M35 USA M 0
99 Aarsheim Will 23:23:24 M40 USA M 0
100 Johnson Bryan 23:24:32 M35 USA M 0
101 Schurr David 23:24:46 M50 USA M 0
102 Rosling Mike 23:27:33 M23 USA M 0
103 Sanel Nathan 23:27:56 M40 USA M 0
104 Decker Daniel 23:28:54 M45 USA M 0
105 Sheridan Phil 23:30:14 M50 USA M 0
106 Murphy Katie 23:32:19 W23 USA F 17 F 0
107 Crerar David 23:32:45 M40 CAN M 0
108 Brenden Daniel 23:36:46 M55 USA M 0
109 Bronstein Craig 23:37:40 M50 USA M 0
110 Murase Yosuke 23:37:58 M35 USA M 0
111 Jensen Roger 23:39:43 M60 USA M 0
112 Miller Marc 23:39:48 M23 USA M 0
113 Robillard Jason 23:39:57 M23 USA M 0
114 Chan Hei 23:40:48 M23 USA M 0
115 Belshaw Allen 23:41:14 M40 USA M 0
116 Newton Scott 23:43:04 M40 USA M 0
117 Hultquist Daryl 23:45:49 M40 USA M 0
118 Brown Mathieu 23:48:39 M35 USA M 0
119 Nypaver Sandra 23:52:30 WU23 USA F 18 F 0
120 Barthen William 23:52:40 M23 USA M 0
121 van Hooser Grae 23:52:53 M50 USA M 0
122 Garman Andrew 23:53:17 M45 USA M 0
123 Ochs Monica 23:54:44 W40 USA F 19 F 0
124 Nunes Ted 23:55:06 M23 USA M 0
125 Carrion Elizabeth 23:59:44 W23 USA F 20 F 0
126 Gaudet David Wayne 24h 21' 18 M50 CAN M 0
127 Thomas Bill 24h 30' 45 M50 USA M 0
128 Pozzi Angie 24h 37' 50 W50 USA F 21 F 0
129 Gaston Rick 24h 50' 39 M35 USA M 0
130 Melchiorri Marco 24h 51' 04 M45 ITA M 0
131 Rosenberg Daniel 24h 56' 30 M23 USA M 0
132 Ainley Richard 24h 58' 11 M35 GBR M 0
133 Torelli Giovanni Battista 25h 00' 31 M55 ITA M 0
134 Ronchin Emmanuel 25h 10' 52 M23 CAN M 0
135 Wright Jeff 25h 19' 34 M45 USA M 0
136 Ortiz Anita 25h 20' 45 W45 USA F 22 F 0
137 Cameron Robin 25h 25' 15 W50 AUS F 23 F 0
138 Warren Mark 25h 25' 48 M40 USA M 0
139 Bailey Michael 25h 26' 15 M23 USA M 0
140 Bhansali Vineer 25h 28' 48 M40 USA M 0
141 Westergaard Danny 25h 33' 45 M50 USA M 0
142 Fuhriman Mark 25h 33' 56 M45 USA M 0
143 Yamagata Kuni 25h 36' 14 M55 USA M 0
144 Washburn Brian 25h 39' 53 M23 USA M 0
145 Johnson Riva 25h 41' 29 W45 USA F 24 F 0
146 Beach Maggie 25h 44' 32 W35 USA F 25 F 0
147 Jones Charley 25h 47' 54 M35 USA M 0
148 Peck Henry 25h 50' 43 M50 USA M 0
149 Holland Thomas R. 25h 51' 58 M35 USA M 0
150 Lindland Erika 25h 54' 13 W23 USA F 26 F 0
151 Lundell Don Charles 25h 54' 51 M45 USA M 0
152 Vautrin Joel 25h 56' 59 M40 FRA M 0
153 Santos Rick 26h 01' 07 M45 USA M 0
154 Haley Christopher 26h 06' 13 M50 USA M 0
155 Cassiday Douglas 26h 06' 32 M40 USA M 0
156 Park Luanne 26h 08' 55 W50 USA F 27 F 0
157 Sowash Craig 26h 09' 58 M45 USA M 0
158 Pivetta Caroline 26h 10' 59 W35 AUS F 28 F 0
159 Williams Brenda 26h 11' 07 W45 CAN F 29 F 0
160 Horn Gary 26h 13' 03 M50 USA M 0
161 Gleason Jeff 26h 18' 09 M50 USA M 0
162 Boyle Diann 26h 18' 24 W45 USA F 30 F 0
163 Trent John 26h 19' 55 M45 USA M 0
164 Hankins Kean 26h 24' 04 M40 USA M 0
165 Carnahan Glenn 26h 26' 17 M45 USA M 0
166 Ruffino Tim 26h 26' 42 M45 USA M 0
167 Swanson Mark 26h 31' 16 M55 USA M 0
168 Snipes David 26h 35' 19 M40 USA M 0
169 Kopp Aaron 26h 36' 23 M35 USA M 0
170 Thompson Bill 26h 39' 09 M40 USA M 0
171 Pontillas Mariano 26h 39' 55 M35 USA M 0
172 Weston Willard 26h 47' 01 M50 USA M 0
173 Blair Nathan 26h 50' 43 M23 USA M 0
174 Bloom Jerry 26h 51' 27 M55 USA M 0
175 Bishop Brad 26h 52' 52 M23 USA M 0
176 Dube Marc 26h 53' 00 M35 USA M 0
177 Allen Rocky 26h 53' 01 M23 USA M 0
178 Taylor Stephen Andrew 26h 54' 09 M40 USA M 0
179 OCrualaoich Niall 26h 54' 44 M35 IRL M 0
180 Stypula Elaine 26h 54' 54 W45 USA F 31 F 0
181 Beard Ryan 26h 58' 20 M35 USA M 0
182 Holden Steve 26h 58' 38 M45 USA M 0
183 Holmes Gregory 27h 06' 27 M45 USA M 0
184 Finkbeiner Bill 27h 06' 34 M50 USA M 0
185 Hoffman Karyn 27h 06' 49 W45 USA F 32 F 0
186 Roget Vance 27h 07' 45 M55 USA M 0
187 Cacciapaglia Edward 27h 08' 21 M55 USA M 0
188 Anderson Arley 27h 09' 52 M45 USA M 0
189 Schaub Howard 27h 13' 00 M50 USA M 0
190 Roosen Paul 27h 15' 25 M45 USA M 0
191 Peoples Michael 27h 17' 10 M45 USA M 0
192 Hagenberg John 27h 21' 13 M23 USA M 0
193 Todd Catherine 27h 21' 55 W23 AUS F 33 F 0
194 Swenson Joseph 27h 23' 12 M55 USA M 0
195 Carino Anthony 27h 25' 03 M23 USA M 0
196 Foote Geoffrey 27h 26' 03 M40 USA M 0
197 Galvan Abe 27h 26' 42 M35 USA M 0
198 Bernhardt Steven 27h 27' 32 M45 USA M 0
199 Wong Calvin 27h 28' 03 M23 USA M 0
200 Koch Christopher 27h 32' 02 M23 USA M 0
201 Peterka George 27h 33' 10 M50 USA M 0
202 Guinta Dominic 27h 34' 10 M40 USA M 0
203 Pierotti Angela 27h 36' 04 W23 CAN F 34 F 0
204 Hansel Yves 27h 37' 19 M45 USA M 0
205 Norquist Craig 27h 38' 36 M40 USA M 0
206 Crowe James 27h 39' 28 M45 USA M 0
207 Barichievich Alan 27h 41' 28 M40 USA M 0
208 Powell John H. 27h 43' 00 M45 USA M 0
209 Nicholl Lisa 27h 44' 03 W40 NZL F 35 F 0
210 Danner Alexander 27h 44' 59 M50 USA M 0
211 Chapman Daniel 27h 45' 23 M40 USA M 0
212 Bauer Thomas 27h 46' 47 M60 USA M 0
213 Lacher Eric 27h 47' 05 M40 USA M 0
214 Hansen Dean 27h 47' 50 M55 USA M 0
215 Ulm Rob 27h 49' 39 M23 USA M 0
216 Gilon Yitzhak 27h 51' 37 M60 USA M 0
217 Dornfeld Elke 27h 52' 22 W50 GER F 36 F 0
218 B?chter Martin 27h 52' 23 M50 GER M 0
219 Fairbank Chet 27h 53' 23 M35 USA M 0
220 Deutsch Eric 27h 55' 18 M35 USA M 0
221 Ladnier Dennis 27h 55' 36 M45 USA M 0
222 Skaggs James 27h 59' 27 M50 USA M 0
223 Sheppard Norman 27h 59' 44 M50 USA M 0
224 Whitcomb Martin 28h 02' 50 M55 USA M 0
225 Welch Kristin 28h 03' 19 W35 USA F 37 F 0
226 Sewell Garry 28h 05' 45 M45 USA M 0
227 Vencill Glenn 28h 06' 02 M55 USA M 0
228 Greuel Steven 28h 06' 03 M50 USA M 0
229 McCloskey Patrick 28h 14' 30 M40 USA M 0
230 Sheppard Melissa 28h 15' 35 W40 USA F 38 F 0
231 Fiedler Nick 28h 15' 46 M23 USA M 0
232 Bright Adam 28h 15' 49 M40 USA M 0
233 Evans Jennifer 28h 15' 57 W40 USA F 39 F 0
234 Moresi Valdes Marla 28h 16' 23 W35 USA F 40 F 0
235 McCarthy John 28h 18' 51 M50 USA M 0
236 Catts John 28h 20' 45 M55 USA M 0
237 Egan Kathleen 28h 24' 46 W35 USA F 41 F 0
238 Elson James Philip 28h 25' 28 M23 GBR M 0
239 Barstad James 28h 29' 20 M45 USA M 0
240 Thomas Will 28h 32' 14 M23 USA M 0
241 Chen Pen Bin 28h 33' 35 M23 CHN M 0
242 Riley Jeff 28h 34' 14 M40 USA M 0
243 Lindsey Ashley 28h 35' 04 W23 USA F 42 F 0
244 McKiernan John 28h 36' 19 M50 USA M 0
245 Zeidner Stephen 28h 36' 35 M23 USA M 0
246 Perkin Erin 28h 37' 02 W35 USA F 43 F 0
247 Green Kevin 28h 38' 36 M35 USA M 0
248 Miller Danny 28h 40' 15 M23 USA M 0
249 Huss Michael 28h 40' 30 M50 USA M 0
250 Savage Charles 28h 44' 12 M60 USA M 0
251 Keefer Zachary 28h 44' 13 M23 USA M 0
252 Voeks Coleen 28h 46' 41 W35 USA F 44 F 0
253 Bachmann Charlie 28h 46' 45 M55 USA M 0
254 Kososki Stan 28h 48' 26 M23 USA M 0
255 Geissler Olivier 28h 51' 03 M35 SUI M 0
256 Warr Scott 28h 56' 05 M40 USA M 0
257 Collins David 28h 56' 09 M55 CAN M 0
258 Feeney John 29h 00' 28 M50 USA M 0
259 Ryan Michael 29h 03' 22 M23 CAN M 0
260 Landry Sam 29h 03' 47 M50 USA M 0
261 Goldblatt Carin 29h 04' 16 W45 ISR F 45 F 0
262 Shannon Patrick 29h 06' 35 M55 USA M 0
263 Harper Tom 29h 06' 57 M60 USA M 0
264 Rupp Judy 29h 08' 08 W45 USA F 46 F 0
265 Heldenbrand Bill 29h 08' 11 M65 USA M 0
266 Watkins Adam 29h 09' 13 M23 USA M 0
267 Hyatt Carrie 29h 10' 10 W35 USA F 47 F 0
268 Madden Tim 29h 11' 51 M40 USA M 0
269 Collins Jeff 29h 12' 29 M55 USA M 0
270 Thomas Conwell Allyson 29h 12' 30 W23 USA F 48 F 0
271 Bonnett Karen 29h 12' 33 W50 USA F 49 F 0
272 Austin Gavin 29h 14' 10 M23 USA M 0
273 Schipsi Robert 29h 15' 22 M50 USA M 0
274 Wong Thomas 29h 15' 44 M40 USA M 0
275 Hargreaves Peter 29h 18' 11 M50 USA M 0
276 Reardon Paul 29h 19' 44 M45 USA M 0
277 Christensen John Hornbech 29h 21' 25 M45 DEN M 0
278 Costas Carl 29h 22' 15 M40 USA M 0
279 Powers John 29h 22' 25 M45 USA M 0
280 Gleman Michael 29h 23' 01 M60 USA M 0
281 Hopkins Catherine 29h 24' 22 W50 CAN F 50 F 0
282 Turney Judy 29h 28' 13 W40 USA F 0
283 Falzarano Bruce 29h 28' 58 M50 USA M 0
284 Cowan Robert 29h 29' 31 M50 USA M 0
285 Farar Griefer Shannon 29h 31' 48 W45 USA F 0
286 Barger Marlow 29h 31' 52 M55 USA M 0
287 Wehner Robert 29h 32' 03 M45 USA M 0
288 Austreng Jim 29h 32' 38 M55 USA M 0
289 Clinton Geoffrey 29h 34' 32 M40 USA M 0
290 Niemann Ted 29h 34' 33 M45 USA M 0
291 Cassidy John 29h 35' 31 M45 USA M 0
292 Trafecanty Denis 29h 36' 42 M65 USA M 0
293 Ross Melanie 29h 37' 17 W35 GBR F 0
294 Liu Wilson 29h 39' 43 M50 USA M 0
295 Bennett Irving 29h 40' 38 M45 PAN M 0
296 Massie Tammy 29h 42' 16 W35 USA F 0
297 Braga Levaggi Ana 29h 43' 29 W50 USA F 0
298 Shapiro Steve 29h 44' 22 M40 USA M 0
299 Hargett John 29h 45' 17 M50 USA M 0
300 Muller Chris 29h 45' 19 M40 USA M 0
301 Vaughan Antoinette 29h 45' 54 W40 USA F 0
302 Crispino Taylor Anne 29h 46' 28 W50 USA F 0
303 Williams Dan 29h 47' 25 M60 USA M 0
304 White Rich 29h 47' 50 M23 USA M 0
305 de Guzman Domingo 29h 48' 44 M50 USA M 0
306 Caseria June 29h 50' 54 W23 USA F 0
307 Forrest Diane 29h 51' 06 W45 USA F 0
308 McKnight Richard 29h 54' 20 M40 USA M 0
309 OGrady Kevin 29h 54' 24 M50 USA M 0
310 Hendricks Marla 29h 57' 10 W55 USA F 0


ReferencementCe site est listé dans la catégorie Sport : Sports extrêmes Dictionnaire
| Accueil | La Réunion  Vue du ciel | Météo | Cyclones | Volcan | Cirques de Mafate , Cilaos , Salazie | Photos Randonnées | Randonnées Réunion: Randos Espiègle , Courses montagne | Diagonale des Fous |  Marathon des Sables | Voyages Les stats du site | Fonds écran | Plan du site | Blog de runraid | Galerie photos Sport Réunion |